カンゲルルススアーク の空港の天気 - METARとTAF

カンゲルルススアーク空港 ( BGSF / SFJ ) - グリーンランド カンゲルルススアーク
飛行場実況気象(Metar)
観測時間10/16 03:50 WGST (10/16 05:50 UTC)
風向・風速西南西 6m/s
視程-
天気現象
少しの雲 雲底高度 120m
気温-3℃
湿度46%
気圧994hPa
METARBGSF 160550Z AUTO 24012KT 9000NDV FEW004/// M03/M13 Q0994
過去の天気等 Google飛行場航空写真 Wunderground天気予報

過去48時間のMETAR

飛行場予報(TAF)
発表時間: 10/16 02:57 WGST (10/16 04:57 UTC)
予報対象時間: 16日4時 WGST ~ 16日23時 WGST
風向・風速南 5m/s
視程10km以上
少しの雲 雲底高度 3050m
16日4時 WGST ~ 16日10時 WGST に一時的に
風向・風速西南西 8m/s 瞬間風速 13m/s
視程2500m
天気現象弱い雪
全天の8割程度の雲 雲底高度 370m
16日10時 WGST ~ 16日23時 WGST に一時的に
全天の8割程度の雲 雲底高度 910m
16日10時 WGST ~ 16日12時 WGST に徐々に
風向・風速東 5m/s
TAF BGSF 160457Z 1606/1701 19010KT 9999 FEW100
TEMPO 1606/1612 24015G25KT 2500 -SN BKN012
TEMPO 1612/1701 BKN030
BECMG 1612/1614 08010KT